sensor_id;sensor_type;location;lat;lon;timestamp;temperature;humidity
29547;DHT22;40782;47.264;11.330;2023-09-19T00:00:25;15.30;99.90
29547;DHT22;40782;47.264;11.330;2023-09-19T00:02:53;15.30;99.90
29547;DHT22;40782;47.264;11.330;2023-09-19T00:05:20;15.40;99.90
29547;DHT22;40782;47.264;11.330;2023-09-19T00:07:50;15.40;99.90
29547;DHT22;40782;47.264;11.330;2023-09-19T00:10:19;15.50;99.90
29547;DHT22;40782;47.264;11.330;2023-09-19T00:12:47;15.50;99.90
29547;DHT22;40782;47.264;11.330;2023-09-19T00:15:15;15.40;99.90
29547;DHT22;40782;47.264;11.330;2023-09-19T00:17:43;15.40;99.90
29547;DHT22;40782;47.264;11.330;2023-09-19T00:20:10;15.30;99.90
29547;DHT22;40782;47.264;11.330;2023-09-19T00:22:39;15.30;99.90
29547;DHT22;40782;47.264;11.330;2023-09-19T00:25:06;15.20;99.90
29547;DHT22;40782;47.264;11.330;2023-09-19T00:27:33;15.30;99.90
29547;DHT22;40782;47.264;11.330;2023-09-19T00:30:00;15.30;99.90
29547;DHT22;40782;47.264;11.330;2023-09-19T00:32:31;15.30;99.90
29547;DHT22;40782;47.264;11.330;2023-09-19T00:34:58;15.30;99.90
29547;DHT22;40782;47.264;11.330;2023-09-19T00:37:25;15.40;99.90
29547;DHT22;40782;47.264;11.330;2023-09-19T00:39:52;15.40;99.90
29547;DHT22;40782;47.264;11.330;2023-09-19T00:42:20;15.50;99.90
29547;DHT22;40782;47.264;11.330;2023-09-19T00:44:47;15.60;99.90
29547;DHT22;40782;47.264;11.330;2023-09-19T00:47:16;15.60;99.90
29547;DHT22;40782;47.264;11.330;2023-09-19T00:49:45;15.30;99.90
29547;DHT22;40782;47.264;11.330;2023-09-19T00:52:14;15.30;99.90
29547;DHT22;40782;47.264;11.330;2023-09-19T00:54:45;15.30;99.90
29547;DHT22;40782;47.264;11.330;2023-09-19T00:57:12;15.30;99.90
29547;DHT22;40782;47.264;11.330;2023-09-19T00:59:40;15.40;99.90
29547;DHT22;40782;47.264;11.330;2023-09-19T01:02:07;15.40;99.90
29547;DHT22;40782;47.264;11.330;2023-09-19T01:04:34;15.40;99.90
29547;DHT22;40782;47.264;11.330;2023-09-19T01:07:03;15.40;99.90
29547;DHT22;40782;47.264;11.330;2023-09-19T01:09:31;15.50;99.90
29547;DHT22;40782;47.264;11.330;2023-09-19T01:12:01;15.50;99.90
29547;DHT22;40782;47.264;11.330;2023-09-19T01:14:29;15.50;99.90
29547;DHT22;40782;47.264;11.330;2023-09-19T01:17:00;15.50;99.90
29547;DHT22;40782;47.264;11.330;2023-09-19T01:22:21;15.50;99.90
29547;DHT22;40782;47.264;11.330;2023-09-19T01:27:47;15.60;99.90
29547;DHT22;40782;47.264;11.330;2023-09-19T01:30:21;15.60;99.90
29547;DHT22;40782;47.264;11.330;2023-09-19T01:32:52;15.70;99.90
29547;DHT22;40782;47.264;11.330;2023-09-19T01:35:19;15.70;99.90
29547;DHT22;40782;47.264;11.330;2023-09-19T01:37:46;15.70;99.90
29547;DHT22;40782;47.264;11.330;2023-09-19T01:40:14;15.60;99.90
29547;DHT22;40782;47.264;11.330;2023-09-19T01:42:43;15.60;99.90
29547;DHT22;40782;47.264;11.330;2023-09-19T01:45:12;15.60;99.90
29547;DHT22;40782;47.264;11.330;2023-09-19T01:47:45;15.60;99.90
29547;DHT22;40782;47.264;11.330;2023-09-19T01:50:13;15.40;99.90
29547;DHT22;40782;47.264;11.330;2023-09-19T01:52:47;15.40;99.90
29547;DHT22;40782;47.264;11.330;2023-09-19T01:55:15;15.30;99.90
29547;DHT22;40782;47.264;11.330;2023-09-19T01:57:48;15.20;99.90
29547;DHT22;40782;47.264;11.330;2023-09-19T02:00:17;15.20;99.90
29547;DHT22;40782;47.264;11.330;2023-09-19T02:02:46;15.20;99.90
29547;DHT22;40782;47.264;11.330;2023-09-19T02:05:21;15.10;99.90
29547;DHT22;40782;47.264;11.330;2023-09-19T02:07:49;15.10;99.90
29547;DHT22;40782;47.264;11.330;2023-09-19T02:10:16;15.10;99.90
29547;DHT22;40782;47.264;11.330;2023-09-19T02:12:43;15.10;99.90
29547;DHT22;40782;47.264;11.330;2023-09-19T02:15:12;15.00;99.90
29547;DHT22;40782;47.264;11.330;2023-09-19T02:17:41;15.10;99.90
29547;DHT22;40782;47.264;11.330;2023-09-19T02:20:11;15.20;99.90
29547;DHT22;40782;47.264;11.330;2023-09-19T02:22:40;15.10;99.90
29547;DHT22;40782;47.264;11.330;2023-09-19T02:25:08;15.10;99.90
29547;DHT22;40782;47.264;11.330;2023-09-19T02:27:35;15.10;99.90
29547;DHT22;40782;47.264;11.330;2023-09-19T02:30:03;15.10;99.90
29547;DHT22;40782;47.264;11.330;2023-09-19T02:32:31;15.00;99.90
29547;DHT22;40782;47.264;11.330;2023-09-19T02:35:02;15.10;99.90
29547;DHT22;40782;47.264;11.330;2023-09-19T02:37:32;15.20;99.90
29547;DHT22;40782;47.264;11.330;2023-09-19T02:40:00;15.20;99.90
29547;DHT22;40782;47.264;11.330;2023-09-19T02:42:28;15.20;99.90
29547;DHT22;40782;47.264;11.330;2023-09-19T02:44:55;15.30;99.90
29547;DHT22;40782;47.264;11.330;2023-09-19T02:47:24;15.30;99.90
29547;DHT22;40782;47.264;11.330;2023-09-19T02:49:52;15.30;99.90
29547;DHT22;40782;47.264;11.330;2023-09-19T02:52:20;15.30;99.90
29547;DHT22;40782;47.264;11.330;2023-09-19T02:54:48;15.30;99.90
29547;DHT22;40782;47.264;11.330;2023-09-19T02:57:15;15.30;99.90
29547;DHT22;40782;47.264;11.330;2023-09-19T02:59:45;15.30;99.90
29547;DHT22;40782;47.264;11.330;2023-09-19T03:02:12;15.20;99.90
29547;DHT22;40782;47.264;11.330;2023-09-19T03:04:39;15.40;99.90
29547;DHT22;40782;47.264;11.330;2023-09-19T03:07:06;15.40;99.90
29547;DHT22;40782;47.264;11.330;2023-09-19T03:09:37;15.40;99.90
29547;DHT22;40782;47.264;11.330;2023-09-19T03:12:06;15.50;99.90
29547;DHT22;40782;47.264;11.330;2023-09-19T03:14:33;15.40;99.90
29547;DHT22;40782;47.264;11.330;2023-09-19T03:17:00;15.40;99.90
29547;DHT22;40782;47.264;11.330;2023-09-19T03:19:30;15.40;99.90
29547;DHT22;40782;47.264;11.330;2023-09-19T03:21:58;15.40;99.90
29547;DHT22;40782;47.264;11.330;2023-09-19T03:24:26;15.40;99.90
29547;DHT22;40782;47.264;11.330;2023-09-19T03:26:54;15.40;99.90
29547;DHT22;40782;47.264;11.330;2023-09-19T03:29:23;15.40;99.90
29547;DHT22;40782;47.264;11.330;2023-09-19T03:31:51;15.40;99.90
29547;DHT22;40782;47.264;11.330;2023-09-19T03:34:20;15.50;99.90
29547;DHT22;40782;47.264;11.330;2023-09-19T03:36:47;15.40;99.90
29547;DHT22;40782;47.264;11.330;2023-09-19T03:39:14;15.30;99.90
29547;DHT22;40782;47.264;11.330;2023-09-19T03:41:41;15.40;99.90
29547;DHT22;40782;47.264;11.330;2023-09-19T03:44:08;15.50;99.90
29547;DHT22;40782;47.264;11.330;2023-09-19T03:46:37;15.60;99.90
29547;DHT22;40782;47.264;11.330;2023-09-19T03:49:04;15.40;99.90
29547;DHT22;40782;47.264;11.330;2023-09-19T03:51:31;15.30;99.90
29547;DHT22;40782;47.264;11.330;2023-09-19T03:54:00;15.30;99.90
29547;DHT22;40782;47.264;11.330;2023-09-19T03:56:27;15.30;99.90
29547;DHT22;40782;47.264;11.330;2023-09-19T03:58:54;15.10;99.90
29547;DHT22;40782;47.264;11.330;2023-09-19T04:01:21;15.10;99.90
29547;DHT22;40782;47.264;11.330;2023-09-19T04:03:49;15.10;99.90
29547;DHT22;40782;47.264;11.330;2023-09-19T04:06:19;15.10;99.90
29547;DHT22;40782;47.264;11.330;2023-09-19T04:08:46;15.20;99.90
29547;DHT22;40782;47.264;11.330;2023-09-19T04:11:13;15.20;99.90
29547;DHT22;40782;47.264;11.330;2023-09-19T04:13:40;15.10;99.90
29547;DHT22;40782;47.264;11.330;2023-09-19T04:16:08;15.10;99.90
29547;DHT22;40782;47.264;11.330;2023-09-19T04:18:35;15.10;99.90
29547;DHT22;40782;47.264;11.330;2023-09-19T04:21:06;15.10;99.90
29547;DHT22;40782;47.264;11.330;2023-09-19T04:23:33;15.00;99.90
29547;DHT22;40782;47.264;11.330;2023-09-19T04:26:00;15.00;99.90
29547;DHT22;40782;47.264;11.330;2023-09-19T04:28:29;15.00;99.90
29547;DHT22;40782;47.264;11.330;2023-09-19T04:30:56;15.00;99.90
29547;DHT22;40782;47.264;11.330;2023-09-19T04:33:24;15.00;99.90
29547;DHT22;40782;47.264;11.330;2023-09-19T04:35:52;15.10;99.90
29547;DHT22;40782;47.264;11.330;2023-09-19T04:38:23;15.00;99.90
29547;DHT22;40782;47.264;11.330;2023-09-19T04:40:50;15.10;99.90
29547;DHT22;40782;47.264;11.330;2023-09-19T04:43:24;15.20;99.90
29547;DHT22;40782;47.264;11.330;2023-09-19T04:45:51;15.20;99.90
29547;DHT22;40782;47.264;11.330;2023-09-19T04:48:21;15.30;99.90
29547;DHT22;40782;47.264;11.330;2023-09-19T04:50:49;15.30;99.90
29547;DHT22;40782;47.264;11.330;2023-09-19T04:53:16;15.40;99.90
29547;DHT22;40782;47.264;11.330;2023-09-19T04:55:50;15.20;99.90
29547;DHT22;40782;47.264;11.330;2023-09-19T04:58:18;15.30;99.90
29547;DHT22;40782;47.264;11.330;2023-09-19T05:00:46;15.20;99.90
29547;DHT22;40782;47.264;11.330;2023-09-19T05:03:13;15.20;99.90
29547;DHT22;40782;47.264;11.330;2023-09-19T05:05:41;15.10;99.90
29547;DHT22;40782;47.264;11.330;2023-09-19T05:08:08;15.20;99.90
29547;DHT22;40782;47.264;11.330;2023-09-19T05:10:35;15.20;99.90
29547;DHT22;40782;47.264;11.330;2023-09-19T05:13:05;15.20;99.90
29547;DHT22;40782;47.264;11.330;2023-09-19T05:15:33;15.10;99.90
29547;DHT22;40782;47.264;11.330;2023-09-19T05:18:01;15.00;99.90
29547;DHT22;40782;47.264;11.330;2023-09-19T05:20:29;15.10;99.90
29547;DHT22;40782;47.264;11.330;2023-09-19T05:22:58;15.10;99.90
29547;DHT22;40782;47.264;11.330;2023-09-19T05:25:27;15.10;99.90
29547;DHT22;40782;47.264;11.330;2023-09-19T05:27:55;15.10;99.90
29547;DHT22;40782;47.264;11.330;2023-09-19T05:30:24;15.10;99.90
29547;DHT22;40782;47.264;11.330;2023-09-19T05:32:53;15.30;99.90
29547;DHT22;40782;47.264;11.330;2023-09-19T05:35:20;15.30;99.90
29547;DHT22;40782;47.264;11.330;2023-09-19T05:37:48;15.40;99.90
29547;DHT22;40782;47.264;11.330;2023-09-19T05:40:16;15.40;99.90
29547;DHT22;40782;47.264;11.330;2023-09-19T05:42:43;15.20;99.90
29547;DHT22;40782;47.264;11.330;2023-09-19T05:45:11;15.10;99.90
29547;DHT22;40782;47.264;11.330;2023-09-19T05:47:40;15.00;99.90
29547;DHT22;40782;47.264;11.330;2023-09-19T05:50:10;15.10;99.90
29547;DHT22;40782;47.264;11.330;2023-09-19T05:52:37;15.20;99.90
29547;DHT22;40782;47.264;11.330;2023-09-19T05:55:04;15.20;99.90
29547;DHT22;40782;47.264;11.330;2023-09-19T05:57:33;15.10;99.90
29547;DHT22;40782;47.264;11.330;2023-09-19T06:00:00;15.20;99.90
29547;DHT22;40782;47.264;11.330;2023-09-19T06:02:27;15.40;99.90
29547;DHT22;40782;47.264;11.330;2023-09-19T06:04:56;15.40;99.90
29547;DHT22;40782;47.264;11.330;2023-09-19T06:07:24;15.40;99.90
29547;DHT22;40782;47.264;11.330;2023-09-19T06:09:53;15.40;99.90
29547;DHT22;40782;47.264;11.330;2023-09-19T06:12:21;15.40;99.90
29547;DHT22;40782;47.264;11.330;2023-09-19T06:14:48;15.40;99.90
29547;DHT22;40782;47.264;11.330;2023-09-19T06:17:15;15.40;99.90
29547;DHT22;40782;47.264;11.330;2023-09-19T06:19:45;15.30;99.90
29547;DHT22;40782;47.264;11.330;2023-09-19T06:22:16;15.40;99.90
29547;DHT22;40782;47.264;11.330;2023-09-19T06:24:44;15.30;99.90
29547;DHT22;40782;47.264;11.330;2023-09-19T06:27:12;15.30;99.90
29547;DHT22;40782;47.264;11.330;2023-09-19T06:29:39;15.40;99.90
29547;DHT22;40782;47.264;11.330;2023-09-19T06:32:06;15.40;99.90
29547;DHT22;40782;47.264;11.330;2023-09-19T06:34:34;15.40;99.90
29547;DHT22;40782;47.264;11.330;2023-09-19T06:37:01;15.40;99.90
29547;DHT22;40782;47.264;11.330;2023-09-19T06:39:30;15.40;99.90
29547;DHT22;40782;47.264;11.330;2023-09-19T06:41:57;15.40;99.90
29547;DHT22;40782;47.264;11.330;2023-09-19T06:44:27;15.50;99.90
29547;DHT22;40782;47.264;11.330;2023-09-19T06:46:55;15.40;99.90
29547;DHT22;40782;47.264;11.330;2023-09-19T06:49:24;15.50;99.90
29547;DHT22;40782;47.264;11.330;2023-09-19T06:51:55;15.60;99.90
29547;DHT22;40782;47.264;11.330;2023-09-19T06:54:22;15.80;99.90
29547;DHT22;40782;47.264;11.330;2023-09-19T06:56:51;15.90;99.90
29547;DHT22;40782;47.264;11.330;2023-09-19T06:59:18;15.90;99.90
29547;DHT22;40782;47.264;11.330;2023-09-19T07:01:45;15.90;99.90
29547;DHT22;40782;47.264;11.330;2023-09-19T07:04:12;15.90;99.90
29547;DHT22;40782;47.264;11.330;2023-09-19T07:06:39;16.00;99.90
29547;DHT22;40782;47.264;11.330;2023-09-19T07:09:06;16.20;99.90
29547;DHT22;40782;47.264;11.330;2023-09-19T07:11:33;16.20;99.90
29547;DHT22;40782;47.264;11.330;2023-09-19T07:14:02;16.20;99.90
29547;DHT22;40782;47.264;11.330;2023-09-19T07:16:29;16.30;99.90
29547;DHT22;40782;47.264;11.330;2023-09-19T07:18:55;16.30;99.90
29547;DHT22;40782;47.264;11.330;2023-09-19T07:21:22;16.40;99.90
29547;DHT22;40782;47.264;11.330;2023-09-19T07:23:49;16.40;99.90
29547;DHT22;40782;47.264;11.330;2023-09-19T07:26:16;16.50;99.90
29547;DHT22;40782;47.264;11.330;2023-09-19T07:28:43;16.60;99.90
29547;DHT22;40782;47.264;11.330;2023-09-19T07:31:12;16.70;99.90
29547;DHT22;40782;47.264;11.330;2023-09-19T07:33:39;16.70;99.90
29547;DHT22;40782;47.264;11.330;2023-09-19T07:36:09;16.70;99.90
29547;DHT22;40782;47.264;11.330;2023-09-19T07:38:36;16.90;99.90
29547;DHT22;40782;47.264;11.330;2023-09-19T07:41:03;17.00;99.90
29547;DHT22;40782;47.264;11.330;2023-09-19T07:43:30;17.00;99.90
29547;DHT22;40782;47.264;11.330;2023-09-19T07:46:02;17.30;99.90
29547;DHT22;40782;47.264;11.330;2023-09-19T07:48:30;17.30;99.90
29547;DHT22;40782;47.264;11.330;2023-09-19T07:51:01;17.20;99.90
29547;DHT22;40782;47.264;11.330;2023-09-19T07:53:28;17.30;99.90
29547;DHT22;40782;47.264;11.330;2023-09-19T07:56:01;17.40;99.90
29547;DHT22;40782;47.264;11.330;2023-09-19T07:58:29;17.40;99.90
29547;DHT22;40782;47.264;11.330;2023-09-19T08:00:56;17.40;99.90
29547;DHT22;40782;47.264;11.330;2023-09-19T08:03:23;17.50;99.90
29547;DHT22;40782;47.264;11.330;2023-09-19T08:05:51;17.40;99.90
29547;DHT22;40782;47.264;11.330;2023-09-19T08:08:18;17.20;99.90
29547;DHT22;40782;47.264;11.330;2023-09-19T08:10:52;17.10;99.90
29547;DHT22;40782;47.264;11.330;2023-09-19T08:13:19;17.00;99.90
29547;DHT22;40782;47.264;11.330;2023-09-19T08:15:46;17.10;99.90
29547;DHT22;40782;47.264;11.330;2023-09-19T08:18:14;17.00;99.90
29547;DHT22;40782;47.264;11.330;2023-09-19T08:20:41;17.00;99.90
29547;DHT22;40782;47.264;11.330;2023-09-19T08:23:12;17.10;99.90
29547;DHT22;40782;47.264;11.330;2023-09-19T08:25:39;17.20;99.90
29547;DHT22;40782;47.264;11.330;2023-09-19T08:28:06;17.30;99.90
29547;DHT22;40782;47.264;11.330;2023-09-19T08:30:37;17.40;99.90
29547;DHT22;40782;47.264;11.330;2023-09-19T08:33:06;17.40;99.90
29547;DHT22;40782;47.264;11.330;2023-09-19T08:35:33;17.30;99.90
29547;DHT22;40782;47.264;11.330;2023-09-19T08:38:00;17.30;99.90
29547;DHT22;40782;47.264;11.330;2023-09-19T08:40:31;17.30;99.90
29547;DHT22;40782;47.264;11.330;2023-09-19T08:42:59;17.30;99.90
29547;DHT22;40782;47.264;11.330;2023-09-19T08:45:26;17.40;99.90
29547;DHT22;40782;47.264;11.330;2023-09-19T08:48:00;17.70;99.90
29547;DHT22;40782;47.264;11.330;2023-09-19T08:50:38;17.50;99.90
29547;DHT22;40782;47.264;11.330;2023-09-19T08:53:10;17.40;99.90
29547;DHT22;40782;47.264;11.330;2023-09-19T08:55:39;17.60;99.90
29547;DHT22;40782;47.264;11.330;2023-09-19T08:58:08;17.70;99.90
29547;DHT22;40782;47.264;11.330;2023-09-19T09:00:36;17.80;99.90
29547;DHT22;40782;47.264;11.330;2023-09-19T09:03:08;17.90;99.90
29547;DHT22;40782;47.264;11.330;2023-09-19T09:05:35;18.10;99.90
29547;DHT22;40782;47.264;11.330;2023-09-19T09:08:06;18.10;99.90
29547;DHT22;40782;47.264;11.330;2023-09-19T09:10:33;18.10;99.90
29547;DHT22;40782;47.264;11.330;2023-09-19T09:13:02;18.10;99.90
29547;DHT22;40782;47.264;11.330;2023-09-19T09:15:34;18.10;99.90
29547;DHT22;40782;47.264;11.330;2023-09-19T09:18:02;18.20;99.90
29547;DHT22;40782;47.264;11.330;2023-09-19T09:20:30;18.30;99.90
29547;DHT22;40782;47.264;11.330;2023-09-19T09:22:57;18.30;99.90
29547;DHT22;40782;47.264;11.330;2023-09-19T09:25:46;18.40;99.90
29547;DHT22;40782;47.264;11.330;2023-09-19T09:28:22;18.40;99.90
29547;DHT22;40782;47.264;11.330;2023-09-19T09:30:49;18.30;99.90
29547;DHT22;40782;47.264;11.330;2023-09-19T09:33:16;18.60;99.90
29547;DHT22;40782;47.264;11.330;2023-09-19T09:35:47;18.90;99.90
29547;DHT22;40782;47.264;11.330;2023-09-19T09:38:20;19.10;99.90
29547;DHT22;40782;47.264;11.330;2023-09-19T09:40:47;19.20;99.90
29547;DHT22;40782;47.264;11.330;2023-09-19T09:43:27;19.10;99.90
29547;DHT22;40782;47.264;11.330;2023-09-19T09:46:07;19.30;99.90
29547;DHT22;40782;47.264;11.330;2023-09-19T09:48:58;19.70;99.90
29547;DHT22;40782;47.264;11.330;2023-09-19T09:51:43;20.10;99.90
29547;DHT22;40782;47.264;11.330;2023-09-19T09:54:13;20.40;99.90
29547;DHT22;40782;47.264;11.330;2023-09-19T09:56:53;20.60;99.90
29547;DHT22;40782;47.264;11.330;2023-09-19T10:02:13;20.20;99.90
29547;DHT22;40782;47.264;11.330;2023-09-19T10:04:42;20.40;99.90
29547;DHT22;40782;47.264;11.330;2023-09-19T10:07:24;20.50;99.90
29547;DHT22;40782;47.264;11.330;2023-09-19T10:09:53;20.60;99.90
29547;DHT22;40782;47.264;11.330;2023-09-19T10:12:24;20.70;99.90
29547;DHT22;40782;47.264;11.330;2023-09-19T10:14:54;20.80;99.90
29547;DHT22;40782;47.264;11.330;2023-09-19T10:17:24;21.00;99.90
29547;DHT22;40782;47.264;11.330;2023-09-19T10:19:54;21.00;99.90
29547;DHT22;40782;47.264;11.330;2023-09-19T10:22:22;20.70;99.90
29547;DHT22;40782;47.264;11.330;2023-09-19T10:24:50;20.70;99.90
29547;DHT22;40782;47.264;11.330;2023-09-19T10:27:19;20.90;99.90
29547;DHT22;40782;47.264;11.330;2023-09-19T10:29:48;21.10;99.90
29547;DHT22;40782;47.264;11.330;2023-09-19T10:32:16;21.40;99.90
29547;DHT22;40782;47.264;11.330;2023-09-19T10:34:46;21.50;99.90
29547;DHT22;40782;47.264;11.330;2023-09-19T10:37:13;21.80;99.90
29547;DHT22;40782;47.264;11.330;2023-09-19T10:39:42;21.60;99.90
29547;DHT22;40782;47.264;11.330;2023-09-19T10:42:13;21.90;99.90
29547;DHT22;40782;47.264;11.330;2023-09-19T10:44:42;22.30;99.90
29547;DHT22;40782;47.264;11.330;2023-09-19T10:47:11;22.40;99.90
29547;DHT22;40782;47.264;11.330;2023-09-19T10:49:42;22.60;99.90
29547;DHT22;40782;47.264;11.330;2023-09-19T10:52:13;22.40;99.90
29547;DHT22;40782;47.264;11.330;2023-09-19T10:54:46;23.00;99.90
29547;DHT22;40782;47.264;11.330;2023-09-19T10:57:18;23.20;99.90
29547;DHT22;40782;47.264;11.330;2023-09-19T11:00:00;23.40;99.90
29547;DHT22;40782;47.264;11.330;2023-09-19T11:02:29;22.90;99.90
29547;DHT22;40782;47.264;11.330;2023-09-19T11:04:56;23.00;99.90
29547;DHT22;40782;47.264;11.330;2023-09-19T11:18:53;22.50;99.90
29547;DHT22;40782;47.264;11.330;2023-09-19T11:21:38;22.00;99.90
29547;DHT22;40782;47.264;11.330;2023-09-19T11:24:28;22.20;99.90
29547;DHT22;40782;47.264;11.330;2023-09-19T11:27:09;22.60;99.90
29547;DHT22;40782;47.264;11.330;2023-09-19T11:29:37;22.60;99.90
29547;DHT22;40782;47.264;11.330;2023-09-19T11:32:06;23.20;99.90
29547;DHT22;40782;47.264;11.330;2023-09-19T11:34:38;23.40;99.90
29547;DHT22;40782;47.264;11.330;2023-09-19T11:37:23;23.80;99.90
29547;DHT22;40782;47.264;11.330;2023-09-19T11:40:05;24.10;99.90
29547;DHT22;40782;47.264;11.330;2023-09-19T11:42:41;25.00;99.90
29547;DHT22;40782;47.264;11.330;2023-09-19T11:45:18;24.90;99.90
29547;DHT22;40782;47.264;11.330;2023-09-19T11:48:06;24.90;99.90
29547;DHT22;40782;47.264;11.330;2023-09-19T11:50:34;25.10;99.90
29547;DHT22;40782;47.264;11.330;2023-09-19T11:53:09;24.10;99.90
29547;DHT22;40782;47.264;11.330;2023-09-19T11:55:36;24.60;99.90
29547;DHT22;40782;47.264;11.330;2023-09-19T11:58:04;24.60;99.10
29547;DHT22;40782;47.264;11.330;2023-09-19T12:00:31;25.60;99.10
29547;DHT22;40782;47.264;11.330;2023-09-19T12:02:59;25.90;98.10
29547;DHT22;40782;47.264;11.330;2023-09-19T12:05:31;26.20;97.70
29547;DHT22;40782;47.264;11.330;2023-09-19T12:08:00;26.40;97.30
29547;DHT22;40782;47.264;11.330;2023-09-19T12:10:28;27.10;98.20
29547;DHT22;40782;47.264;11.330;2023-09-19T12:12:55;27.40;96.50
29547;DHT22;40782;47.264;11.330;2023-09-19T12:15:24;27.70;95.90
29547;DHT22;40782;47.264;11.330;2023-09-19T12:17:54;28.00;92.90
29547;DHT22;40782;47.264;11.330;2023-09-19T12:20:21;27.50;93.80
29547;DHT22;40782;47.264;11.330;2023-09-19T12:22:48;27.50;93.40
29547;DHT22;40782;47.264;11.330;2023-09-19T12:25:17;27.90;93.30
29547;DHT22;40782;47.264;11.330;2023-09-19T12:27:46;28.40;91.70
29547;DHT22;40782;47.264;11.330;2023-09-19T12:30:18;29.00;93.10
29547;DHT22;40782;47.264;11.330;2023-09-19T12:32:46;29.50;91.40
29547;DHT22;40782;47.264;11.330;2023-09-19T12:35:26;29.20;90.40
29547;DHT22;40782;47.264;11.330;2023-09-19T12:37:54;29.30;87.10
29547;DHT22;40782;47.264;11.330;2023-09-19T12:40:23;30.00;88.70
29547;DHT22;40782;47.264;11.330;2023-09-19T12:42:53;30.00;82.60
29547;DHT22;40782;47.264;11.330;2023-09-19T12:45:20;29.20;84.50
29547;DHT22;40782;47.264;11.330;2023-09-19T12:50:33;29.40;81.60
29547;DHT22;40782;47.264;11.330;2023-09-19T12:53:00;29.90;83.20
29547;DHT22;40782;47.264;11.330;2023-09-19T12:55:29;30.60;80.20
29547;DHT22;40782;47.264;11.330;2023-09-19T12:57:58;30.70;76.90
29547;DHT22;40782;47.264;11.330;2023-09-19T13:00:35;29.70;77.60
29547;DHT22;40782;47.264;11.330;2023-09-19T13:03:14;29.10;79.20
29547;DHT22;40782;47.264;11.330;2023-09-19T13:08:30;30.50;76.00
29547;DHT22;40782;47.264;11.330;2023-09-19T13:11:06;31.60;83.10
29547;DHT22;40782;47.264;11.330;2023-09-19T13:13:32;31.60;75.20
29547;DHT22;40782;47.264;11.330;2023-09-19T13:16:01;31.90;74.40
29547;DHT22;40782;47.264;11.330;2023-09-19T13:18:30;31.80;70.20
29547;DHT22;40782;47.264;11.330;2023-09-19T13:21:07;31.80;70.60
29547;DHT22;40782;47.264;11.330;2023-09-19T13:23:36;32.30;68.60
29547;DHT22;40782;47.264;11.330;2023-09-19T13:26:03;32.40;68.90
29547;DHT22;40782;47.264;11.330;2023-09-19T13:28:32;31.50;67.60
29547;DHT22;40782;47.264;11.330;2023-09-19T13:30:59;30.90;68.30
29547;DHT22;40782;47.264;11.330;2023-09-19T13:33:26;30.80;68.20
29547;DHT22;40782;47.264;11.330;2023-09-19T13:35:53;30.60;67.40
29547;DHT22;40782;47.264;11.330;2023-09-19T13:38:22;31.50;71.40
29547;DHT22;40782;47.264;11.330;2023-09-19T13:40:49;31.60;72.50
29547;DHT22;40782;47.264;11.330;2023-09-19T13:43:18;32.10;70.80
29547;DHT22;40782;47.264;11.330;2023-09-19T13:45:47;32.30;67.90
29547;DHT22;40782;47.264;11.330;2023-09-19T13:48:14;32.50;64.40
29547;DHT22;40782;47.264;11.330;2023-09-19T13:50:40;31.50;65.60
29547;DHT22;40782;47.264;11.330;2023-09-19T13:53:07;31.70;63.10
29547;DHT22;40782;47.264;11.330;2023-09-19T13:55:34;30.70;65.70
29547;DHT22;40782;47.264;11.330;2023-09-19T13:58:03;31.40;67.50
29547;DHT22;40782;47.264;11.330;2023-09-19T14:00:32;31.30;65.00
29547;DHT22;40782;47.264;11.330;2023-09-19T14:03:01;31.00;59.70
29547;DHT22;40782;47.264;11.330;2023-09-19T14:05:29;31.90;61.80
29547;DHT22;40782;47.264;11.330;2023-09-19T14:07:56;30.90;59.50
29547;DHT22;40782;47.264;11.330;2023-09-19T14:10:24;31.00;61.20
29547;DHT22;40782;47.264;11.330;2023-09-19T14:12:53;30.80;61.30
29547;DHT22;40782;47.264;11.330;2023-09-19T14:15:19;30.50;62.60
29547;DHT22;40782;47.264;11.330;2023-09-19T14:17:54;31.00;64.00
29547;DHT22;40782;47.264;11.330;2023-09-19T14:20:23;30.40;63.50
29547;DHT22;40782;47.264;11.330;2023-09-19T14:22:50;30.70;60.70
29547;DHT22;40782;47.264;11.330;2023-09-19T14:25:17;30.80;64.20
29547;DHT22;40782;47.264;11.330;2023-09-19T14:27:43;30.70;61.70
29547;DHT22;40782;47.264;11.330;2023-09-19T14:30:11;31.60;61.80
29547;DHT22;40782;47.264;11.330;2023-09-19T14:32:37;32.10;65.30
29547;DHT22;40782;47.264;11.330;2023-09-19T14:35:05;32.00;61.70
29547;DHT22;40782;47.264;11.330;2023-09-19T14:37:33;32.30;65.70
29547;DHT22;40782;47.264;11.330;2023-09-19T14:40:00;32.20;63.90
29547;DHT22;40782;47.264;11.330;2023-09-19T14:42:33;32.00;66.00
29547;DHT22;40782;47.264;11.330;2023-09-19T14:45:01;31.60;68.30
29547;DHT22;40782;47.264;11.330;2023-09-19T14:47:28;32.00;68.40
29547;DHT22;40782;47.264;11.330;2023-09-19T14:49:57;31.90;66.60
29547;DHT22;40782;47.264;11.330;2023-09-19T14:52:25;32.00;68.30
29547;DHT22;40782;47.264;11.330;2023-09-19T14:54:55;32.30;67.00
29547;DHT22;40782;47.264;11.330;2023-09-19T14:57:22;32.50;66.20
29547;DHT22;40782;47.264;11.330;2023-09-19T14:59:50;33.00;65.80
29547;DHT22;40782;47.264;11.330;2023-09-19T15:02:17;33.00;65.40
29547;DHT22;40782;47.264;11.330;2023-09-19T15:04:44;33.40;64.80
29547;DHT22;40782;47.264;11.330;2023-09-19T15:07:12;33.60;63.20
29547;DHT22;40782;47.264;11.330;2023-09-19T15:09:40;33.50;69.30
29547;DHT22;40782;47.264;11.330;2023-09-19T15:12:08;32.70;63.30
29547;DHT22;40782;47.264;11.330;2023-09-19T15:14:35;31.90;63.20
29547;DHT22;40782;47.264;11.330;2023-09-19T15:17:02;32.00;64.10
29547;DHT22;40782;47.264;11.330;2023-09-19T15:19:30;32.40;64.00
29547;DHT22;40782;47.264;11.330;2023-09-19T15:21:57;31.90;63.80
29547;DHT22;40782;47.264;11.330;2023-09-19T15:24:24;31.90;64.50
29547;DHT22;40782;47.264;11.330;2023-09-19T15:26:52;31.30;62.90
29547;DHT22;40782;47.264;11.330;2023-09-19T15:29:22;30.70;64.30
29547;DHT22;40782;47.264;11.330;2023-09-19T15:31:49;30.50;64.80
29547;DHT22;40782;47.264;11.330;2023-09-19T15:34:16;30.10;64.40
29547;DHT22;40782;47.264;11.330;2023-09-19T15:36:43;29.90;66.00
29547;DHT22;40782;47.264;11.330;2023-09-19T15:39:11;30.10;64.70
29547;DHT22;40782;47.264;11.330;2023-09-19T15:41:40;30.40;64.50
29547;DHT22;40782;47.264;11.330;2023-09-19T15:44:11;30.40;64.60
29547;DHT22;40782;47.264;11.330;2023-09-19T15:46:40;30.30;64.90
29547;DHT22;40782;47.264;11.330;2023-09-19T15:49:07;30.00;65.30
29547;DHT22;40782;47.264;11.330;2023-09-19T15:51:34;29.80;67.30